Time;durP1;ratioP1;P1;durP2;ratioP2;P2;SDS_P1;SDS_P2;PMS_P1;PMS_P2;Temp;Humidity;BMP_temperature;BMP_pressure;BME280_temperature;BME280_humidity;BME280_pressure;Samples;Min_cycle;Max_cycle;Signal;HPM_P1;HPM_P2
2022/08/05 00:00:19;;;;;;;0;0;;;;;;;0;0;0;;;;
2022/08/05 00:01:20;;;;;;;0;0;;;;;;;0;0;0;;;;
2022/08/05 00:02:22;;;;;;;0;0;;;;;;;0;0;0;;;;
2022/08/05 00:03:22;;;;;;;0;0;;;;;;;0;0;0;;;;
2022/08/05 00:04:23;;;;;;;0;0;;;;;;;0;0;0;;;;
2022/08/05 00:05:23;;;;;;;0;0;;;;;;;0;0;0;;;;
2022/08/05 00:06:24;;;;;;;0;0;;;;;;;0;0;0;;;;
2022/08/05 00:07:24;;;;;;;0;0;;;;;;;0;0;0;;;;
2022/08/05 00:08:25;;;;;;;0;0;;;;;;;0;0;0;;;;
2022/08/05 00:09:25;;;;;;;0;0;;;;;;;0;0;0;;;;
2022/08/05 00:10:26;;;;;;;0;0;;;;;;;0;0;0;;;;
2022/08/05 00:11:26;;;;;;;0;0;;;;;;;0;0;0;;;;
2022/08/05 00:12:27;;;;;;;0;0;;;;;;;0;0;0;;;;
2022/08/05 00:13:28;;;;;;;0;0;;;;;;;0;0;0;;;;
2022/08/05 00:14:31;;;;;;;0;0;;;;;;;0;0;0;;;;
2022/08/05 00:15:31;;;;;;;0;0;;;;;;;0;0;0;;;;
2022/08/05 00:16:32;;;;;;;0;0;;;;;;;0;0;0;;;;
2022/08/05 00:17:32;;;;;;;0;0;;;;;;;0;0;0;;;;
2022/08/05 00:18:33;;;;;;;0;0;;;;;;;0;0;0;;;;
2022/08/05 00:19:33;;;;;;;0;0;;;;;;;0;0;0;;;;
2022/08/05 00:20:34;;;;;;;0;0;;;;;;;0;0;0;;;;
2022/08/05 00:21:34;;;;;;;0;0;;;;;;;0;0;0;;;;
2022/08/05 00:22:35;;;;;;;0;0;;;;;;;0;0;0;;;;
2022/08/05 00:23:36;;;;;;;0;0;;;;;;;0;0;0;;;;
2022/08/05 00:24:37;;;;;;;0;0;;;;;;;0;0;0;;;;
2022/08/05 00:25:38;;;;;;;0;0;;;;;;;0;0;0;;;;
2022/08/05 00:26:38;;;;;;;0;0;;;;;;;0;0;0;;;;
2022/08/05 00:27:39;;;;;;;0;0;;;;;;;0;0;0;;;;
2022/08/05 00:28:39;;;;;;;0;0;;;;;;;0;0;0;;;;
2022/08/05 00:29:40;;;;;;;0;0;;;;;;;0;0;0;;;;
2022/08/05 00:30:40;;;;;;;0;0;;;;;;;0;0;0;;;;
2022/08/05 00:31:41;;;;;;;0;0;;;;;;;0;0;0;;;;
2022/08/05 00:32:41;;;;;;;0;0;;;;;;;0;0;0;;;;
2022/08/05 00:33:42;;;;;;;0;0;;;;;;;0;0;0;;;;
2022/08/05 00:34:42;;;;;;;0;0;;;;;;;0;0;0;;;;
2022/08/05 00:35:44;;;;;;;0;0;;;;;;;0;0;0;;;;
2022/08/05 00:36:44;;;;;;;0;0;;;;;;;0;0;0;;;;
2022/08/05 00:37:45;;;;;;;0;0;;;;;;;0;0;0;;;;
2022/08/05 00:38:45;;;;;;;0;0;;;;;;;0;0;0;;;;
2022/08/05 00:39:46;;;;;;;0;0;;;;;;;0;0;0;;;;
2022/08/05 00:40:46;;;;;;;0;0;;;;;;;0;0;0;;;;
2022/08/05 00:41:48;;;;;;;0;0;;;;;;;0;0;0;;;;
2022/08/05 00:42:49;;;;;;;0;0;;;;;;;0;0;0;;;;
2022/08/05 00:58:50;;;;;;;0;0;;;;;;;0;0;0;;;;
2022/08/05 00:59:50;;;;;;;0;0;;;;;;;0;0;0;;;;
2022/08/05 01:00:51;;;;;;;0;0;;;;;;;0;0;0;;;;
2022/08/05 01:01:52;;;;;;;0;0;;;;;;;0;0;0;;;;
2022/08/05 01:02:52;;;;;;;0;0;;;;;;;0;0;0;;;;
2022/08/05 01:03:53;;;;;;;0;0;;;;;;;0;0;0;;;;
2022/08/05 01:04:53;;;;;;;0;0;;;;;;;0;0;0;;;;
2022/08/05 01:05:54;;;;;;;0;0;;;;;;;0;0;0;;;;
2022/08/05 01:06:54;;;;;;;0;0;;;;;;;0;0;0;;;;
2022/08/05 01:07:55;;;;;;;0;0;;;;;;;0;0;0;;;;
2022/08/05 01:08:55;;;;;;;0;0;;;;;;;0;0;0;;;;
2022/08/05 01:09:56;;;;;;;0;0;;;;;;;0;0;0;;;;
2022/08/05 01:10:57;;;;;;;0;0;;;;;;;0;0;0;;;;
2022/08/05 01:12:01;;;;;;;0;0;;;;;;;0;0;0;;;;
2022/08/05 01:13:07;;;;;;;0;0;;;;;;;0;0;0;;;;
2022/08/05 01:14:18;;;;;;;0;0;;;;;;;0;0;0;;;;
2022/08/05 01:15:25;;;;;;;0;0;;;;;;;0;0;0;;;;
2022/08/05 01:16:32;;;;;;;0;0;;;;;;;0;0;0;;;;
2022/08/05 01:17:39;;;;;;;0;0;;;;;;;0;0;0;;;;
2022/08/05 01:18:44;;;;;;;0;0;;;;;;;0;0;0;;;;
2022/08/05 01:19:50;;;;;;;0;0;;;;;;;0;0;0;;;;
2022/08/05 01:20:54;;;;;;;0;0;;;;;;;0;0;0;;;;
2022/08/05 01:22:06;;;;;;;0;0;;;;;;;0;0;0;;;;
2022/08/05 01:23:22;;;;;;;0;0;;;;;;;0;0;0;;;;
2022/08/05 01:24:34;;;;;;;0;0;;;;;;;0;0;0;;;;
2022/08/05 01:26:52;;;;;;;0;0;;;;;;;0;0;0;;;;
2022/08/05 01:28:01;;;;;;;0;0;;;;;;;0;0;0;;;;
2022/08/05 01:29:15;;;;;;;0;0;;;;;;;0;0;0;;;;
2022/08/05 01:30:23;;;;;;;0;0;;;;;;;0;0;0;;;;
2022/08/05 01:31:27;;;;;;;0;0;;;;;;;0;0;0;;;;
2022/08/05 01:32:34;;;;;;;0;0;;;;;;;0;0;0;;;;
2022/08/05 01:33:39;;;;;;;0;0;;;;;;;0;0;0;;;;
2022/08/05 01:34:45;;;;;;;0;0;;;;;;;0;0;0;;;;
2022/08/05 01:35:50;;;;;;;0;0;;;;;;;0;0;0;;;;
2022/08/05 01:36:54;;;;;;;0;0;;;;;;;0;0;0;;;;
2022/08/05 01:38:01;;;;;;;0;0;;;;;;;0;0;0;;;;
2022/08/05 01:39:04;;;;;;;0;0;;;;;;;0;0;0;;;;
2022/08/05 01:40:05;;;;;;;0;0;;;;;;;0;0;0;;;;
2022/08/05 01:41:08;;;;;;;0;0;;;;;;;0;0;0;;;;
2022/08/05 01:42:11;;;;;;;0;0;;;;;;;0;0;0;;;;
2022/08/05 01:43:15;;;;;;;0;0;;;;;;;0;0;0;;;;
2022/08/05 01:44:16;;;;;;;0;0;;;;;;;0;0;0;;;;
2022/08/05 01:45:19;;;;;;;0;0;;;;;;;0;0;0;;;;
2022/08/05 01:46:21;;;;;;;0;0;;;;;;;0;0;0;;;;
2022/08/05 01:47:23;;;;;;;0;0;;;;;;;0;0;0;;;;
2022/08/05 01:48:26;;;;;;;0;0;;;;;;;0;0;0;;;;
2022/08/05 01:49:30;;;;;;;0;0;;;;;;;0;0;0;;;;
2022/08/05 01:50:32;;;;;;;0;0;;;;;;;0;0;0;;;;
2022/08/05 01:51:37;;;;;;;0;0;;;;;;;0;0;0;;;;
2022/08/05 01:52:38;;;;;;;0;0;;;;;;;0;0;0;;;;
2022/08/05 01:53:43;;;;;;;0;0;;;;;;;0;0;0;;;;
2022/08/05 01:54:46;;;;;;;0;0;;;;;;;0;0;0;;;;
2022/08/05 01:55:51;;;;;;;0;0;;;;;;;0;0;0;;;;
2022/08/05 01:56:57;;;;;;;0;0;;;;;;;0;0;0;;;;
2022/08/05 01:58:00;;;;;;;0;0;;;;;;;0;0;0;;;;
2022/08/05 01:59:02;;;;;;;0;0;;;;;;;0;0;0;;;;
2022/08/05 02:00:08;;;;;;;0;0;;;;;;;0;0;0;;;;
2022/08/05 02:01:10;;;;;;;0;0;;;;;;;0;0;0;;;;
2022/08/05 02:02:13;;;;;;;0;0;;;;;;;0;0;0;;;;
2022/08/05 02:03:15;;;;;;;0;0;;;;;;;0;0;0;;;;
2022/08/05 02:04:20;;;;;;;0;0;;;;;;;0;0;0;;;;
2022/08/05 02:05:22;;;;;;;0;0;;;;;;;0;0;0;;;;
2022/08/05 02:06:29;;;;;;;0;0;;;;;;;0;0;0;;;;
2022/08/05 02:07:30;;;;;;;0;0;;;;;;;0;0;0;;;;
2022/08/05 02:08:32;;;;;;;0;0;;;;;;;0;0;0;;;;
2022/08/05 02:09:33;;;;;;;0;0;;;;;;;0;0;0;;;;
2022/08/05 02:10:34;;;;;;;0;0;;;;;;;0;0;0;;;;
2022/08/05 02:11:41;;;;;;;0;0;;;;;;;0;0;0;;;;
2022/08/05 02:12:47;;;;;;;0;0;;;;;;;0;0;0;;;;
2022/08/05 02:13:53;;;;;;;0;0;;;;;;;0;0;0;;;;
2022/08/05 02:15:01;;;;;;;0;0;;;;;;;0;0;0;;;;
2022/08/05 02:16:08;;;;;;;0;0;;;;;;;0;0;0;;;;
2022/08/05 02:17:18;;;;;;;0;0;;;;;;;0;0;0;;;;
2022/08/05 02:18:30;;;;;;;0;0;;;;;;;0;0;0;;;;
2022/08/05 02:19:36;;;;;;;0;0;;;;;;;0;0;0;;;;
2022/08/05 02:20:42;;;;;;;0;0;;;;;;;0;0;0;;;;
2022/08/05 02:21:48;;;;;;;0;0;;;;;;;0;0;0;;;;
2022/08/05 02:23:00;;;;;;;0;0;;;;;;;0;0;0;;;;
2022/08/05 02:24:06;;;;;;;0;0;;;;;;;0;0;0;;;;
2022/08/05 02:25:10;;;;;;;0;0;;;;;;;0;0;0;;;;
2022/08/05 02:26:15;;;;;;;0;0;;;;;;;0;0;0;;;;
2022/08/05 02:27:22;;;;;;;0;0;;;;;;;0;0;0;;;;
2022/08/05 02:28:24;;;;;;;0;0;;;;;;;0;0;0;;;;
2022/08/05 02:29:29;;;;;;;0;0;;;;;;;0;0;0;;;;
2022/08/05 02:30:34;;;;;;;0;0;;;;;;;0;0;0;;;;
2022/08/05 02:31:38;;;;;;;0;0;;;;;;;0;0;0;;;;
2022/08/05 02:32:39;;;;;;;0;0;;;;;;;0;0;0;;;;
2022/08/05 02:33:41;;;;;;;0;0;;;;;;;0;0;0;;;;
2022/08/05 02:34:48;;;;;;;0;0;;;;;;;0;0;0;;;;
2022/08/05 02:35:50;;;;;;;0;0;;;;;;;0;0;0;;;;
2022/08/05 02:36:54;;;;;;;0;0;;;;;;;0;0;0;;;;
2022/08/05 02:37:58;;;;;;;0;0;;;;;;;0;0;0;;;;
2022/08/05 02:39:00;;;;;;;0;0;;;;;;;0;0;0;;;;
2022/08/05 02:40:03;;;;;;;0;0;;;;;;;0;0;0;;;;
2022/08/05 02:41:07;;;;;;;0;0;;;;;;;0;0;0;;;;
2022/08/05 02:42:09;;;;;;;0;0;;;;;;;0;0;0;;;;
2022/08/05 02:43:10;;;;;;;0;0;;;;;;;0;0;0;;;;
2022/08/05 02:44:12;;;;;;;0;0;;;;;;;0;0;0;;;;
2022/08/05 02:45:13;;;;;;;0;0;;;;;;;0;0;0;;;;
2022/08/05 02:46:16;;;;;;;0;0;;;;;;;0;0;0;;;;
2022/08/05 02:47:18;;;;;;;0;0;;;;;;;0;0;0;;;;
2022/08/05 02:48:21;;;;;;;0;0;;;;;;;0;0;0;;;;
2022/08/05 02:49:24;;;;;;;0;0;;;;;;;0;0;0;;;;
2022/08/05 02:50:26;;;;;;;0;0;;;;;;;0;0;0;;;;
2022/08/05 02:51:28;;;;;;;0;0;;;;;;;0;0;0;;;;
2022/08/05 02:52:29;;;;;;;0;0;;;;;;;0;0;0;;;;
2022/08/05 02:53:31;;;;;;;0;0;;;;;;;0;0;0;;;;
2022/08/05 02:54:33;;;;;;;0;0;;;;;;;0;0;0;;;;
2022/08/05 02:55:35;;;;;;;0;0;;;;;;;0;0;0;;;;
2022/08/05 02:56:36;;;;;;;0;0;;;;;;;0;0;0;;;;
2022/08/05 02:57:37;;;;;;;0;0;;;;;;;0;0;0;;;;
2022/08/05 02:58:39;;;;;;;0;0;;;;;;;0;0;0;;;;
2022/08/05 02:59:40;;;;;;;0;0;;;;;;;0;0;0;;;;
2022/08/05 03:00:42;;;;;;;0;0;;;;;;;0;0;0;;;;
2022/08/05 03:01:44;;;;;;;0;0;;;;;;;0;0;0;;;;
2022/08/05 03:02:48;;;;;;;0;0;;;;;;;0;0;0;;;;
2022/08/05 03:03:49;;;;;;;0;0;;;;;;;0;0;0;;;;
2022/08/05 03:04:53;;;;;;;0;0;;;;;;;0;0;0;;;;
2022/08/05 03:05:57;;;;;;;0;0;;;;;;;0;0;0;;;;
2022/08/05 03:06:59;;;;;;;0;0;;;;;;;0;0;0;;;;
2022/08/05 03:07:59;;;;;;;0;0;;;;;;;0;0;0;;;;
2022/08/05 03:09:01;;;;;;;0;0;;;;;;;0;0;0;;;;
2022/08/05 03:10:03;;;;;;;0;0;;;;;;;0;0;0;;;;
2022/08/05 03:11:04;;;;;;;0;0;;;;;;;0;0;0;;;;
2022/08/05 03:12:16;;;;;;;0;0;;;;;;;0;0;0;;;;
2022/08/05 03:13:34;;;;;;;0;0;;;;;;;0;0;0;;;;
2022/08/05 03:14:38;;;;;;;0;0;;;;;;;0;0;0;;;;
2022/08/05 03:15:38;;;;;;;0;0;;;;;;;0;0;0;;;;
2022/08/05 03:16:41;;;;;;;0;0;;;;;;;0;0;0;;;;
2022/08/05 03:17:42;;;;;;;0;0;;;;;;;0;0;0;;;;
2022/08/05 03:18:42;;;;;;;0;0;;;;;;;0;0;0;;;;
2022/08/05 03:19:43;;;;;;;0;0;;;;;;;0;0;0;;;;
2022/08/05 03:20:43;;;;;;;0;0;;;;;;;0;0;0;;;;
2022/08/05 03:21:44;;;;;;;0;0;;;;;;;0;0;0;;;;
2022/08/05 03:22:44;;;;;;;0;0;;;;;;;0;0;0;;;;
2022/08/05 03:23:45;;;;;;;0;0;;;;;;;0;0;0;;;;
2022/08/05 03:24:46;;;;;;;0;0;;;;;;;0;0;0;;;;
2022/08/05 03:25:48;;;;;;;0;0;;;;;;;0;0;0;;;;
2022/08/05 03:26:48;;;;;;;0;0;;;;;;;0;0;0;;;;
2022/08/05 03:27:49;;;;;;;0;0;;;;;;;0;0;0;;;;
2022/08/05 03:28:50;;;;;;;0;0;;;;;;;0;0;0;;;;
2022/08/05 03:29:50;;;;;;;0;0;;;;;;;0;0;0;;;;
2022/08/05 03:30:51;;;;;;;0;0;;;;;;;0;0;0;;;;
2022/08/05 03:31:52;;;;;;;0;0;;;;;;;0;0;0;;;;
2022/08/05 03:32:54;;;;;;;0;0;;;;;;;0;0;0;;;;
2022/08/05 03:33:54;;;;;;;0;0;;;;;;;0;0;0;;;;
2022/08/05 03:34:55;;;;;;;0;0;;;;;;;0;0;0;;;;
2022/08/05 03:35:55;;;;;;;0;0;;;;;;;0;0;0;;;;
2022/08/05 03:36:57;;;;;;;0;0;;;;;;;0;0;0;;;;
2022/08/05 03:37:57;;;;;;;0;0;;;;;;;0;0;0;;;;
2022/08/05 03:38:59;;;;;;;0;0;;;;;;;0;0;0;;;;
2022/08/05 03:40:07;;;;;;;0;0;;;;;;;0;0;0;;;;
2022/08/05 03:41:09;;;;;;;0;0;;;;;;;0;0;0;;;;
2022/08/05 03:42:09;;;;;;;0;0;;;;;;;0;0;0;;;;
2022/08/05 03:43:10;;;;;;;0;0;;;;;;;0;0;0;;;;
2022/08/05 03:44:11;;;;;;;0;0;;;;;;;0;0;0;;;;
2022/08/05 03:45:11;;;;;;;0;0;;;;;;;0;0;0;;;;
2022/08/05 03:46:12;;;;;;;0;0;;;;;;;0;0;0;;;;
2022/08/05 03:47:13;;;;;;;0;0;;;;;;;0;0;0;;;;
2022/08/05 03:48:13;;;;;;;0;0;;;;;;;0;0;0;;;;
2022/08/05 03:49:14;;;;;;;0;0;;;;;;;0;0;0;;;;
2022/08/05 03:50:14;;;;;;;0;0;;;;;;;0;0;0;;;;
2022/08/05 03:51:15;;;;;;;0;0;;;;;;;0;0;0;;;;
2022/08/05 03:52:20;;;;;;;0;0;;;;;;;0;0;0;;;;
2022/08/05 03:53:25;;;;;;;0;0;;;;;;;0;0;0;;;;
2022/08/05 03:54:31;;;;;;;0;0;;;;;;;0;0;0;;;;
2022/08/05 03:55:38;;;;;;;0;0;;;;;;;0;0;0;;;;
2022/08/05 03:56:44;;;;;;;0;0;;;;;;;0;0;0;;;;
2022/08/05 03:57:47;;;;;;;0;0;;;;;;;0;0;0;;;;
2022/08/05 03:58:50;;;;;;;0;0;;;;;;;0;0;0;;;;
2022/08/05 03:59:54;;;;;;;0;0;;;;;;;0;0;0;;;;
2022/08/05 04:01:00;;;;;;;0;0;;;;;;;0;0;0;;;;
2022/08/05 04:02:02;;;;;;;0;0;;;;;;;0;0;0;;;;
2022/08/05 04:03:04;;;;;;;0;0;;;;;;;0;0;0;;;;
2022/08/05 04:04:07;;;;;;;0;0;;;;;;;0;0;0;;;;
2022/08/05 04:05:09;;;;;;;0;0;;;;;;;0;0;0;;;;
2022/08/05 04:06:11;;;;;;;0;0;;;;;;;0;0;0;;;;
2022/08/05 04:07:12;;;;;;;0;0;;;;;;;0;0;0;;;;
2022/08/05 04:08:13;;;;;;;0;0;;;;;;;0;0;0;;;;
2022/08/05 04:09:14;;;;;;;0;0;;;;;;;0;0;0;;;;
2022/08/05 04:10:16;;;;;;;0;0;;;;;;;0;0;0;;;;
2022/08/05 04:11:17;;;;;;;0;0;;;;;;;0;0;0;;;;
2022/08/05 04:12:18;;;;;;;0;0;;;;;;;0;0;0;;;;
2022/08/05 04:13:20;;;;;;;0;0;;;;;;;0;0;0;;;;
2022/08/05 04:14:20;;;;;;;0;0;;;;;;;0;0;0;;;;
2022/08/05 04:15:22;;;;;;;0;0;;;;;;;0;0;0;;;;
2022/08/05 04:16:22;;;;;;;0;0;;;;;;;0;0;0;;;;
2022/08/05 04:17:23;;;;;;;0;0;;;;;;;0;0;0;;;;
2022/08/05 04:18:24;;;;;;;0;0;;;;;;;0;0;0;;;;
2022/08/05 04:19:25;;;;;;;0;0;;;;;;;0;0;0;;;;
2022/08/05 04:20:27;;;;;;;0;0;;;;;;;0;0;0;;;;
2022/08/05 04:21:27;;;;;;;0;0;;;;;;;0;0;0;;;;
2022/08/05 04:22:28;;;;;;;0;0;;;;;;;0;0;0;;;;
2022/08/05 04:23:29;;;;;;;0;0;;;;;;;0;0;0;;;;
2022/08/05 04:24:30;;;;;;;0;0;;;;;;;0;0;0;;;;
2022/08/05 04:25:31;;;;;;;0;0;;;;;;;0;0;0;;;;
2022/08/05 04:26:31;;;;;;;0;0;;;;;;;0;0;0;;;;
2022/08/05 04:27:32;;;;;;;0;0;;;;;;;0;0;0;;;;
2022/08/05 04:28:33;;;;;;;0;0;;;;;;;0;0;0;;;;
2022/08/05 04:29:33;;;;;;;0;0;;;;;;;0;0;0;;;;
2022/08/05 04:30:34;;;;;;;0;0;;;;;;;0;0;0;;;;
2022/08/05 04:31:35;;;;;;;0;0;;;;;;;0;0;0;;;;
2022/08/05 04:32:35;;;;;;;0;0;;;;;;;0;0;0;;;;
2022/08/05 04:33:36;;;;;;;0;0;;;;;;;0;0;0;;;;
2022/08/05 04:34:37;;;;;;;0;0;;;;;;;0;0;0;;;;
2022/08/05 04:35:37;;;;;;;0;0;;;;;;;0;0;0;;;;
2022/08/05 04:36:38;;;;;;;0;0;;;;;;;0;0;0;;;;
2022/08/05 04:37:39;;;;;;;0;0;;;;;;;0;0;0;;;;
2022/08/05 04:38:39;;;;;;;0;0;;;;;;;0;0;0;;;;
2022/08/05 04:39:41;;;;;;;0;0;;;;;;;0;0;0;;;;
2022/08/05 04:40:42;;;;;;;0;0;;;;;;;0;0;0;;;;
2022/08/05 04:41:42;;;;;;;0;0;;;;;;;0;0;0;;;;
2022/08/05 04:42:43;;;;;;;0;0;;;;;;;0;0;0;;;;
2022/08/05 07:40:52;;;;;;;0;0;;;;;;;0;0;0;;;;
2022/08/05 07:41:52;;;;;;;0;0;;;;;;;0;0;0;;;;
2022/08/05 07:42:53;;;;;;;0;0;;;;;;;0;0;0;;;;
2022/08/05 07:43:53;;;;;;;0;0;;;;;;;0;0;0;;;;
2022/08/05 07:44:55;;;;;;;0;0;;;;;;;0;0;0;;;;
2022/08/05 07:45:56;;;;;;;0;0;;;;;;;0;0;0;;;;
2022/08/05 07:46:56;;;;;;;0;0;;;;;;;0;0;0;;;;
2022/08/05 07:47:57;;;;;;;0;0;;;;;;;0;0;0;;;;
2022/08/05 07:48:58;;;;;;;0;0;;;;;;;0;0;0;;;;
2022/08/05 07:50:00;;;;;;;0;0;;;;;;;0;0;0;;;;
2022/08/05 07:51:00;;;;;;;0;0;;;;;;;0;0;0;;;;
2022/08/05 07:52:01;;;;;;;0;0;;;;;;;0;0;0;;;;
2022/08/05 07:53:01;;;;;;;0;0;;;;;;;0;0;0;;;;
2022/08/05 07:54:02;;;;;;;0;0;;;;;;;0;0;0;;;;
2022/08/05 07:55:03;;;;;;;0;0;;;;;;;0;0;0;;;;
2022/08/05 07:56:04;;;;;;;0;0;;;;;;;0;0;0;;;;
2022/08/05 07:57:04;;;;;;;0;0;;;;;;;0;0;0;;;;
2022/08/05 07:58:05;;;;;;;0;0;;;;;;;0;0;0;;;;
2022/08/05 07:59:05;;;;;;;0;0;;;;;;;0;0;0;;;;
2022/08/05 08:00:06;;;;;;;0;0;;;;;;;0;0;0;;;;
2022/08/05 08:01:08;;;;;;;0;0;;;;;;;0;0;0;;;;
2022/08/05 08:02:08;;;;;;;0;0;;;;;;;0;0;0;;;;
2022/08/05 08:03:10;;;;;;;0;0;;;;;;;0;0;0;;;;
2022/08/05 08:04:11;;;;;;;0;0;;;;;;;0;0;0;;;;
2022/08/05 08:05:12;;;;;;;0;0;;;;;;;0;0;0;;;;
2022/08/05 08:06:13;;;;;;;0;0;;;;;;;0;0;0;;;;
2022/08/05 08:07:13;;;;;;;0;0;;;;;;;0;0;0;;;;
2022/08/05 08:08:13;;;;;;;0;0;;;;;;;0;0;0;;;;
2022/08/05 08:09:14;;;;;;;0;0;;;;;;;0;0;0;;;;
2022/08/05 08:10:14;;;;;;;0;0;;;;;;;0;0;0;;;;
2022/08/05 08:11:15;;;;;;;0;0;;;;;;;0;0;0;;;;
2022/08/05 08:12:16;;;;;;;0;0;;;;;;;0;0;0;;;;
2022/08/05 08:13:16;;;;;;;0;0;;;;;;;0;0;0;;;;
2022/08/05 08:14:17;;;;;;;0;0;;;;;;;0;0;0;;;;
2022/08/05 08:15:17;;;;;;;0;0;;;;;;;0;0;0;;;;
2022/08/05 08:16:18;;;;;;;0;0;;;;;;;0;0;0;;;;
2022/08/05 08:17:18;;;;;;;0;0;;;;;;;0;0;0;;;;
2022/08/05 08:18:19;;;;;;;0;0;;;;;;;0;0;0;;;;
2022/08/05 08:19:19;;;;;;;0;0;;;;;;;0;0;0;;;;
2022/08/05 08:20:20;;;;;;;0;0;;;;;;;0;0;0;;;;
2022/08/05 08:21:22;;;;;;;0;0;;;;;;;0;0;0;;;;
2022/08/05 08:22:22;;;;;;;0;0;;;;;;;0;0;0;;;;
2022/08/05 08:23:25;;;;;;;0;0;;;;;;;0;0;0;;;;
2022/08/05 08:24:25;;;;;;;0;0;;;;;;;0;0;0;;;;
2022/08/05 08:25:27;;;;;;;0;0;;;;;;;0;0;0;;;;
2022/08/05 08:26:28;;;;;;;0;0;;;;;;;0;0;0;;;;
2022/08/05 08:27:29;;;;;;;0;0;;;;;;;0;0;0;;;;
2022/08/05 08:28:30;;;;;;;0;0;;;;;;;0;0;0;;;;
2022/08/05 08:29:31;;;;;;;0;0;;;;;;;0;0;0;;;;
2022/08/05 08:30:31;;;;;;;0;0;;;;;;;0;0;0;;;;
2022/08/05 08:31:32;;;;;;;0;0;;;;;;;0;0;0;;;;
2022/08/05 08:32:32;;;;;;;0;0;;;;;;;0;0;0;;;;
2022/08/05 08:33:33;;;;;;;0;0;;;;;;;0;0;0;;;;
2022/08/05 08:34:34;;;;;;;0;0;;;;;;;0;0;0;;;;
2022/08/05 08:35:35;;;;;;;0;0;;;;;;;0;0;0;;;;
2022/08/05 08:36:36;;;;;;;0;0;;;;;;;0;0;0;;;;
2022/08/05 08:37:36;;;;;;;0;0;;;;;;;0;0;0;;;;
2022/08/05 08:38:37;;;;;;;0;0;;;;;;;0;0;0;;;;
2022/08/05 08:39:37;;;;;;;0;0;;;;;;;0;0;0;;;;
2022/08/05 08:40:38;;;;;;;0;0;;;;;;;0;0;0;;;;
2022/08/05 08:41:39;;;;;;;0;0;;;;;;;0;0;0;;;;
2022/08/05 08:42:41;;;;;;;0;0;;;;;;;0;0;0;;;;
2022/08/05 08:43:45;;;;;;;0;0;;;;;;;0;0;0;;;;
2022/08/05 08:44:46;;;;;;;0;0;;;;;;;0;0;0;;;;
2022/08/05 08:45:47;;;;;;;0;0;;;;;;;0;0;0;;;;
2022/08/05 08:46:49;;;;;;;0;0;;;;;;;0;0;0;;;;
2022/08/05 08:47:50;;;;;;;0;0;;;;;;;0;0;0;;;;
2022/08/05 08:48:52;;;;;;;0;0;;;;;;;0;0;0;;;;
2022/08/05 08:49:54;;;;;;;0;0;;;;;;;0;0;0;;;;
2022/08/05 08:50:57;;;;;;;0;0;;;;;;;0;0;0;;;;
2022/08/05 08:51:59;;;;;;;0;0;;;;;;;0;0;0;;;;
2022/08/05 08:53:07;;;;;;;0;0;;;;;;;0;0;0;;;;
2022/08/05 08:54:10;;;;;;;0;0;;;;;;;0;0;0;;;;
2022/08/05 08:55:11;;;;;;;0;0;;;;;;;0;0;0;;;;
2022/08/05 08:56:12;;;;;;;0;0;;;;;;;0;0;0;;;;
2022/08/05 08:57:13;;;;;;;0;0;;;;;;;0;0;0;;;;
2022/08/05 08:58:13;;;;;;;0;0;;;;;;;0;0;0;;;;
2022/08/05 08:59:15;;;;;;;0;0;;;;;;;0;0;0;;;;
2022/08/05 09:00:17;;;;;;;0;0;;;;;;;0;0;0;;;;
2022/08/05 09:01:18;;;;;;;0;0;;;;;;;0;0;0;;;;
2022/08/05 09:02:18;;;;;;;0;0;;;;;;;0;0;0;;;;
2022/08/05 09:03:20;;;;;;;0;0;;;;;;;0;0;0;;;;
2022/08/05 09:04:20;;;;;;;0;0;;;;;;;0;0;0;;;;
2022/08/05 09:05:21;;;;;;;0;0;;;;;;;0;0;0;;;;
2022/08/05 09:06:22;;;;;;;0;0;;;;;;;0;0;0;;;;
2022/08/05 09:07:23;;;;;;;0;0;;;;;;;0;0;0;;;;
2022/08/05 09:08:24;;;;;;;0;0;;;;;;;0;0;0;;;;
2022/08/05 09:09:24;;;;;;;0;0;;;;;;;0;0;0;;;;
2022/08/05 09:10:25;;;;;;;0;0;;;;;;;0;0;0;;;;
2022/08/05 09:11:26;;;;;;;0;0;;;;;;;0;0;0;;;;
2022/08/05 09:12:27;;;;;;;0;0;;;;;;;0;0;0;;;;
2022/08/05 09:13:27;;;;;;;0;0;;;;;;;0;0;0;;;;
2022/08/05 09:14:28;;;;;;;0;0;;;;;;;0;0;0;;;;
2022/08/05 09:15:30;;;;;;;0;0;;;;;;;0;0;0;;;;
2022/08/05 09:16:31;;;;;;;0;0;;;;;;;0;0;0;;;;
2022/08/05 09:17:32;;;;;;;0;0;;;;;;;0;0;0;;;;
2022/08/05 09:18:33;;;;;;;0;0;;;;;;;0;0;0;;;;
2022/08/05 09:19:34;;;;;;;0;0;;;;;;;0;0;0;;;;
2022/08/05 09:20:35;;;;;;;0;0;;;;;;;0;0;0;;;;
2022/08/05 09:21:36;;;;;;;0;0;;;;;;;0;0;0;;;;
2022/08/05 09:22:37;;;;;;;0;0;;;;;;;0;0;0;;;;
2022/08/05 09:24:11;;;;;;;0;0;;;;;;;0;0;0;;;;
2022/08/05 09:25:12;;;;;;;0;0;;;;;;;0;0;0;;;;
2022/08/05 09:26:18;;;;;;;0;0;;;;;;;0;0;0;;;;
2022/08/05 09:27:19;;;;;;;0;0;;;;;;;0;0;0;;;;
2022/08/05 09:28:30;;;;;;;0;0;;;;;;;0;0;0;;;;
2022/08/05 09:29:32;;;;;;;0;0;;;;;;;0;0;0;;;;
2022/08/05 09:30:38;;;;;;;0;0;;;;;;;0;0;0;;;;
2022/08/05 09:31:42;;;;;;;0;0;;;;;;;0;0;0;;;;
2022/08/05 09:32:43;;;;;;;0;0;;;;;;;0;0;0;;;;
2022/08/05 09:33:44;;;;;;;0;0;;;;;;;0;0;0;;;;
2022/08/05 09:34:47;;;;;;;0;0;;;;;;;0;0;0;;;;
2022/08/05 09:35:49;;;;;;;0;0;;;;;;;0;0;0;;;;
2022/08/05 09:36:56;;;;;;;0;0;;;;;;;0;0;0;;;;
2022/08/05 09:37:57;;;;;;;0;0;;;;;;;0;0;0;;;;
2022/08/05 09:38:58;;;;;;;0;0;;;;;;;0;0;0;;;;
2022/08/05 09:40:03;;;;;;;0;0;;;;;;;0;0;0;;;;
2022/08/05 09:41:04;;;;;;;0;0;;;;;;;0;0;0;;;;
2022/08/05 09:42:07;;;;;;;5.6;4.6;;;;;;;47;26.89844;95286.43;;;;
2022/08/05 09:43:09;;;;;;;5.6;4.6;;;;;;;47;26.89844;95286.43;;;;
2022/08/05 09:44:25;;;;;;;5.6;4.6;;;;;;;47;26.89844;95286.43;;;;
2022/08/05 09:45:35;;;;;;;5.6;4.6;;;;;;;47;26.89844;95286.43;;;;
2022/08/05 09:46:36;;;;;;;5.6;4.6;;;;;;;47;26.89844;95286.43;;;;
2022/08/05 09:47:37;;;;;;;5.6;4.6;;;;;;;47;26.89844;95286.43;;;;
2022/08/05 09:48:40;;;;;;;5.6;4.6;;;;;;;47;26.89844;95286.43;;;;
2022/08/05 09:49:40;;;;;;;5.6;4.6;;;;;;;47;26.89844;95286.43;;;;
2022/08/05 09:50:44;;;;;;;5.6;4.6;;;;;;;47;26.89844;95286.43;;;;
2022/08/05 09:51:49;;;;;;;9.099999;4.05;;;;;;;48.17;24.12891;95289.43;;;;
2022/08/05 09:52:49;;;;;;;9.099999;4.05;;;;;;;48.17;24.12891;95289.43;;;;
2022/08/05 09:53:56;;;;;;;9.099999;4.05;;;;;;;48.17;24.12891;95289.43;;;;
2022/08/05 09:54:57;;;;;;;9.099999;4.05;;;;;;;48.17;24.12891;95289.43;;;;
2022/08/05 09:56:02;;;;;;;9.099999;4.05;;;;;;;48.17;24.12891;95289.43;;;;
2022/08/05 09:57:03;;;;;;;9.099999;4.05;;;;;;;48.17;24.12891;95289.43;;;;
2022/08/05 09:58:04;;;;;;;9.099999;4.05;;;;;;;48.17;24.12891;95289.43;;;;
2022/08/05 09:59:09;;;;;;;9.099999;4.05;;;;;;;48.17;24.12891;95289.43;;;;
2022/08/05 10:00:12;;;;;;;9.099999;4.05;;;;;;;48.17;24.12891;95289.43;;;;
2022/08/05 10:01:16;;;;;;;9.099999;4.05;;;;;;;48.17;24.12891;95289.43;;;;
2022/08/05 10:02:16;;;;;;;9.099999;4.05;;;;;;;48.17;24.12891;95289.43;;;;
2022/08/05 10:03:29;;;;;;;9.749998;4.699999;;;;;;;48.31;23.08008;95284.73;;;;
2022/08/05 10:04:30;;;;;;;9.749998;4.699999;;;;;;;48.31;23.08008;95284.73;;;;
2022/08/05 10:05:35;;;;;;;9.749998;4.699999;;;;;;;48.31;23.08008;95284.73;;;;
2022/08/05 10:06:39;;;;;;;9.749998;4.699999;;;;;;;48.31;23.08008;95284.73;;;;
2022/08/05 10:07:40;;;;;;;9.749998;4.699999;;;;;;;48.31;23.08008;95284.73;;;;
2022/08/05 10:08:42;;;;;;;9.749998;4.699999;;;;;;;48.31;23.08008;95284.73;;;;
2022/08/05 10:09:43;;;;;;;9.749998;4.699999;;;;;;;48.31;23.08008;95284.73;;;;
2022/08/05 10:10:54;;;;;;;9.749998;4.699999;;;;;;;48.31;23.08008;95284.73;;;;
2022/08/05 10:11:54;;;;;;;9.749998;4.699999;;;;;;;48.31;23.08008;95284.73;;;;
2022/08/05 10:13:06;;;;;;;6.5;4.400001;;;;;;;47.28;23.01758;95293.96;;;;
2022/08/05 10:14:07;;;;;;;6.5;4.400001;;;;;;;47.28;23.01758;95293.96;;;;
2022/08/05 10:15:20;;;;;;;6.5;4.400001;;;;;;;47.28;23.01758;95293.96;;;;
2022/08/05 10:16:23;;;;;;;6.5;4.400001;;;;;;;47.28;23.01758;95293.96;;;;
2022/08/05 10:17:30;;;;;;;6.5;4.400001;;;;;;;47.28;23.01758;95293.96;;;;
2022/08/05 10:18:31;;;;;;;6.5;4.400001;;;;;;;47.28;23.01758;95293.96;;;;
2022/08/05 10:19:33;;;;;;;6.5;4.400001;;;;;;;47.28;23.01758;95293.96;;;;
2022/08/05 10:20:33;;;;;;;6.5;4.400001;;;;;;;47.28;23.01758;95293.96;;;;
2022/08/05 10:21:36;;;;;;;6.5;4.400001;;;;;;;47.28;23.01758;95293.96;;;;
2022/08/05 10:22:36;;;;;;;6.5;4.400001;;;;;;;47.28;23.01758;95293.96;;;;
2022/08/05 10:23:38;;;;;;;6.5;4.400001;;;;;;;47.28;23.01758;95293.96;;;;
2022/08/05 10:24:38;;;;;;;9.399998;5;;;;;;;47.98;21.6748;95301.09;;;;
2022/08/05 10:25:39;;;;;;;9.399998;5;;;;;;;47.98;21.6748;95301.09;;;;
2022/08/05 10:26:40;;;;;;;9.399998;5;;;;;;;47.98;21.6748;95301.09;;;;
2022/08/05 10:27:43;;;;;;;9.399998;5;;;;;;;47.98;21.6748;95301.09;;;;
2022/08/05 10:28:43;;;;;;;9.399998;5;;;;;;;47.98;21.6748;95301.09;;;;
2022/08/05 10:29:46;;;;;;;9.399998;5;;;;;;;47.98;21.6748;95301.09;;;;
2022/08/05 10:30:46;;;;;;;9.399998;5;;;;;;;47.98;21.6748;95301.09;;;;
2022/08/05 10:31:47;;;;;;;9.399998;5;;;;;;;47.98;21.6748;95301.09;;;;
2022/08/05 10:32:48;;;;;;;9.399998;5;;;;;;;47.98;21.6748;95301.09;;;;
2022/08/05 10:33:49;;;;;;;9.399998;5;;;;;;;47.98;21.6748;95301.09;;;;
2022/08/05 10:34:50;;;;;;;5.649999;4.2;;;;;;;48.69;20.7334;95307.58;;;;
2022/08/05 10:35:50;;;;;;;5.649999;4.2;;;;;;;48.69;20.7334;95307.58;;;;
2022/08/05 10:36:52;;;;;;;5.649999;4.2;;;;;;;48.69;20.7334;95307.58;;;;
2022/08/05 10:37:53;;;;;;;5.649999;4.2;;;;;;;48.69;20.7334;95307.58;;;;
2022/08/05 10:38:55;;;;;;;5.649999;4.2;;;;;;;48.69;20.7334;95307.58;;;;
2022/08/05 10:40:04;;;;;;;5.649999;4.2;;;;;;;48.69;20.7334;95307.58;;;;
2022/08/05 10:41:15;;;;;;;5.649999;4.2;;;;;;;48.69;20.7334;95307.58;;;;
2022/08/05 10:42:26;;;;;;;5.649999;4.2;;;;;;;48.69;20.7334;95307.58;;;;
2022/08/05 10:43:28;;;;;;;5.649999;4.2;;;;;;;48.69;20.7334;95307.58;;;;
2022/08/05 10:44:38;;;;;;;5.649999;4.2;;;;;;;48.69;20.7334;95307.58;;;;
2022/08/05 10:45:44;;;;;;;7.850001;4.45;;;;;;;48.56;20.27441;95310.26;;;;
2022/08/05 10:46:55;;;;;;;7.850001;4.45;;;;;;;48.56;20.27441;95310.26;;;;
2022/08/05 10:47:56;;;;;;;7.850001;4.45;;;;;;;48.56;20.27441;95310.26;;;;
2022/08/05 10:48:57;;;;;;;7.850001;4.45;;;;;;;48.56;20.27441;95310.26;;;;
2022/08/05 10:49:57;;;;;;;7.850001;4.45;;;;;;;48.56;20.27441;95310.26;;;;
2022/08/05 10:51:00;;;;;;;7.850001;4.45;;;;;;;48.56;20.27441;95310.26;;;;
2022/08/05 10:52:04;;;;;;;7.850001;4.45;;;;;;;48.56;20.27441;95310.26;;;;
2022/08/05 10:53:05;;;;;;;7.850001;4.45;;;;;;;48.56;20.27441;95310.26;;;;
2022/08/05 10:54:32;;;;;;;7.850001;4.45;;;;;;;48.56;20.27441;95310.26;;;;
2022/08/05 10:56:01;;;;;;;5.499999;4.149999;;;;;;;48.84;19.9541;95294.39;;;;
2022/08/05 10:57:04;;;;;;;5.499999;4.149999;;;;;;;48.84;19.9541;95294.39;;;;
2022/08/05 10:58:04;;;;;;;5.499999;4.149999;;;;;;;48.84;19.9541;95294.39;;;;
2022/08/05 10:59:07;;;;;;;5.499999;4.149999;;;;;;;48.84;19.9541;95294.39;;;;
2022/08/05 11:00:07;;;;;;;5.499999;4.149999;;;;;;;48.84;19.9541;95294.39;;;;
2022/08/05 11:01:11;;;;;;;5.499999;4.149999;;;;;;;48.84;19.9541;95294.39;;;;
2022/08/05 11:02:12;;;;;;;5.499999;4.149999;;;;;;;48.84;19.9541;95294.39;;;;
2022/08/05 11:03:13;;;;;;;5.499999;4.149999;;;;;;;48.84;19.9541;95294.39;;;;
2022/08/05 11:04:16;;;;;;;5.499999;4.149999;;;;;;;48.84;19.9541;95294.39;;;;
2022/08/05 11:05:22;;;;;;;5.499999;4.149999;;;;;;;48.84;19.9541;95294.39;;;;
2022/08/05 11:06:23;;;;;;;5.499999;4.149999;;;;;;;48.84;19.9541;95294.39;;;;
2022/08/05 11:07:24;;;;;;;4.75;4.199999;;;;;;;49.22;19.63672;95294.7;;;;
2022/08/05 11:08:24;;;;;;;4.75;4.199999;;;;;;;49.22;19.63672;95294.7;;;;
2022/08/05 11:09:25;;;;;;;4.75;4.199999;;;;;;;49.22;19.63672;95294.7;;;;
2022/08/05 11:10:27;;;;;;;4.75;4.199999;;;;;;;49.22;19.63672;95294.7;;;;
2022/08/05 11:11:28;;;;;;;4.75;4.199999;;;;;;;49.22;19.63672;95294.7;;;;
2022/08/05 11:12:33;;;;;;;4.75;4.199999;;;;;;;49.22;19.63672;95294.7;;;;
2022/08/05 11:13:42;;;;;;;4.75;4.199999;;;;;;;49.22;19.63672;95294.7;;;;
2022/08/05 11:14:43;;;;;;;4.75;4.199999;;;;;;;49.22;19.63672;95294.7;;;;
2022/08/05 11:15:45;;;;;;;4.75;4.199999;;;;;;;49.22;19.63672;95294.7;;;;
2022/08/05 11:16:45;;;;;;;4.75;4.199999;;;;;;;49.22;19.63672;95294.7;;;;